Søk
Bilder fra klubbens virksomhet
Tooltip
Hangarbygging september - oktober 2005
Tooltip
Med LN-KAQ til mikroflystripa på Evje 14 oktober 2005
Tooltip
Turer til blant annet Paris 2005
Tooltip
Gap Weekend Fyresdal 23-25 juni 2005
Tooltip
Tur til Notodden 8 mars 2005
  • Tilfeldig bilde
     
    Opplastet 22-05-2008
    Opplastet 02-07-2014
    Opplastet 11-05-2008
     
  • Siste bilde
     
    Opplastet 27-07-2018
    Opplastet 05-06-2018
    Opplastet 31-10-2017
     
«StartForrige1234NesteSiste»
Side 3 av 4
 
 
METAR
2020/11/27 00:20 ENCN 270020Z AUTO 06005KT 9999 NCD M02/M03 Q1019
TAF
2020/11/26 17:45 TAF AMD TAF AMD ENCN 261742Z 2617/2620 VRB03KT 0200 FZFG VV001 TEMPO 2617/2620 4000 BCFG SCT002
LN-KFK
Operativ VFR-natt
VFR dag
07:53 - 16:37
Brannvakt
Inaktiv
Banner
Banner
Banner
Banner
Banner